createdAt,value
2023-04-14T00:00:57.208Z,99.90
2023-04-14T00:03:39.815Z,99.90
2023-04-14T00:06:23.013Z,99.90
2023-04-14T00:09:06.098Z,99.90
2023-04-14T00:11:50.904Z,99.90
2023-04-14T00:14:33.649Z,99.90
2023-04-14T00:17:17.108Z,99.90
2023-04-14T00:19:59.587Z,99.90
2023-04-14T00:22:42.392Z,99.90
2023-04-14T00:25:24.718Z,99.90
2023-04-14T00:28:07.190Z,99.90
2023-04-14T00:30:49.511Z,99.90
2023-04-14T00:33:31.988Z,99.90
2023-04-14T00:36:14.176Z,99.90
2023-04-14T00:38:56.622Z,99.90
2023-04-14T00:41:39.206Z,99.90
2023-04-14T00:44:23.045Z,99.90
2023-04-14T00:47:05.715Z,99.90
2023-04-14T00:49:48.622Z,99.90
2023-04-14T00:52:32.549Z,99.90
2023-04-14T00:55:20.030Z,99.90
2023-04-14T00:58:03.499Z,99.90
2023-04-14T01:00:46.337Z,99.90
2023-04-14T01:03:28.747Z,99.90
2023-04-14T01:06:13.436Z,99.90
2023-04-14T01:08:57.595Z,99.90
2023-04-14T01:12:11.666Z,99.90
2023-04-14T01:15:12.117Z,99.90
2023-04-14T01:18:16.197Z,99.90
2023-04-14T01:21:05.475Z,99.90
2023-04-14T01:24:00.805Z,99.90
2023-04-14T01:26:45.518Z,99.90
2023-04-14T01:30:03.084Z,99.90
2023-04-14T01:32:50.912Z,99.90
2023-04-14T01:35:45.977Z,99.90
2023-04-14T01:38:34.500Z,99.90
2023-04-14T01:41:21.612Z,99.90
2023-04-14T01:44:06.585Z,99.90
2023-04-14T01:46:52.059Z,99.90
2023-04-14T01:49:38.271Z,99.90
2023-04-14T01:52:22.475Z,99.90
2023-04-14T01:55:07.159Z,99.90
2023-04-14T01:57:53.335Z,99.90
2023-04-14T02:00:36.937Z,99.90
2023-04-14T02:03:20.892Z,99.90
2023-04-14T02:06:04.971Z,99.90
2023-04-14T02:08:48.675Z,99.90
2023-04-14T02:11:32.902Z,99.90
2023-04-14T02:14:17.179Z,99.90
2023-04-14T02:17:02.644Z,99.90
2023-04-14T02:19:46.352Z,99.90
2023-04-14T02:22:28.576Z,99.90
2023-04-14T02:25:11.212Z,99.90
2023-04-14T02:28:02.616Z,99.90
2023-04-14T02:30:48.828Z,99.90
2023-04-14T02:33:34.488Z,99.90
2023-04-14T02:36:24.352Z,99.90
2023-04-14T02:39:14.498Z,99.90
2023-04-14T02:42:18.669Z,99.90
2023-04-14T02:45:05.193Z,99.90
2023-04-14T02:47:54.584Z,99.90
2023-04-14T02:50:45.068Z,99.90
2023-04-14T02:53:33.260Z,99.90
2023-04-14T02:56:38.452Z,99.90
2023-04-14T02:59:22.536Z,99.90
2023-04-14T03:02:17.682Z,99.90
2023-04-14T03:05:06.326Z,99.90
2023-04-14T03:08:03.552Z,99.90
2023-04-14T03:10:48.546Z,99.90
2023-04-14T03:13:34.519Z,99.90
2023-04-14T03:16:20.506Z,99.90
2023-04-14T03:19:04.617Z,99.90
2023-04-14T03:21:51.152Z,99.90
2023-04-14T03:24:34.968Z,99.90
2023-04-14T03:27:22.843Z,99.90
2023-04-14T03:30:07.879Z,99.90
2023-04-14T03:32:54.617Z,99.90
2023-04-14T03:35:38.214Z,99.90
2023-04-14T03:38:21.538Z,99.90
2023-04-14T03:41:06.354Z,99.90
2023-04-14T03:43:54.828Z,99.90
2023-04-14T03:46:37.720Z,99.90
2023-04-14T03:49:23.760Z,99.90
2023-04-14T03:52:10.366Z,99.90
2023-04-14T03:54:55.429Z,99.90
2023-04-14T03:57:39.868Z,99.90
2023-04-14T04:00:24.065Z,99.90
2023-04-14T04:03:06.577Z,99.90
2023-04-14T04:05:50.313Z,99.90
2023-04-14T04:08:34.226Z,99.90
2023-04-14T04:11:20.895Z,99.90
2023-04-14T04:14:07.228Z,99.90
2023-04-14T04:16:55.147Z,99.90
2023-04-14T04:19:40.312Z,99.90
2023-04-14T04:22:26.318Z,99.90
2023-04-14T04:25:11.433Z,99.90
2023-04-14T04:28:01.099Z,99.90
2023-04-14T04:30:46.558Z,99.90
2023-04-14T04:33:30.083Z,99.90
2023-04-14T04:36:13.828Z,99.90
2023-04-14T04:38:58.761Z,99.90
2023-04-14T04:41:43.213Z,99.90
2023-04-14T04:44:25.783Z,59.60
2023-04-14T04:47:08.668Z,27.60
2023-04-14T04:49:53.138Z,1.00
2023-04-14T04:52:35.415Z,1.00
2023-04-14T04:55:17.937Z,1.00
2023-04-14T04:58:00.538Z,99.90
2023-04-14T05:00:43.547Z,99.90
2023-04-14T05:03:25.908Z,1.00
2023-04-14T05:06:08.598Z,1.00
2023-04-14T05:08:57.518Z,99.90
2023-04-14T05:11:40.337Z,1.00
2023-04-14T05:14:22.596Z,99.90
2023-04-14T05:17:05.167Z,99.90
2023-04-14T05:19:47.677Z,99.90
2023-04-14T05:22:30.352Z,99.90
2023-04-14T05:25:12.731Z,99.90
2023-04-14T05:27:55.506Z,99.90
2023-04-14T05:30:37.764Z,99.90
2023-04-14T05:33:20.457Z,99.90
2023-04-14T05:36:02.847Z,99.90
2023-04-14T05:38:45.580Z,99.90
2023-04-14T05:41:28.162Z,99.90
2023-04-14T05:44:10.922Z,99.90
2023-04-14T05:46:53.384Z,99.90
2023-04-14T05:49:36.188Z,94.10
2023-04-14T05:52:18.675Z,99.90
2023-04-14T05:55:01.597Z,86.20
2023-04-14T05:57:45.501Z,1.00
2023-04-14T06:00:28.552Z,1.00
2023-04-14T06:03:13.211Z,1.00
2023-04-14T06:05:56.087Z,99.90
2023-04-14T06:08:38.931Z,1.00
2023-04-14T06:11:21.685Z,99.90
2023-04-14T06:14:05.591Z,1.00
2023-04-14T06:16:48.508Z,99.90
2023-04-14T06:19:31.437Z,99.90
2023-04-14T06:22:19.286Z,99.90
2023-04-14T06:25:02.049Z,96.50
2023-04-14T06:27:45.088Z,2.80
2023-04-14T06:30:28.629Z,1.00
2023-04-14T06:33:11.682Z,1.00
2023-04-14T06:35:54.932Z,1.00
2023-04-14T06:38:37.687Z,1.00
2023-04-14T06:41:20.200Z,99.90
2023-04-14T06:44:03.233Z,99.90
2023-04-14T06:46:46.095Z,99.90
2023-04-14T06:49:29.513Z,99.90
2023-04-14T06:52:12.008Z,99.90
2023-04-14T06:54:54.676Z,99.90
2023-04-14T06:57:37.097Z,99.90
2023-04-14T07:00:20.381Z,99.90
2023-04-14T07:03:02.865Z,99.90
2023-04-14T07:05:45.522Z,99.90
2023-04-14T07:08:32.114Z,99.90
2023-04-14T07:11:14.796Z,99.90
2023-04-14T07:13:57.445Z,99.90
2023-04-14T07:16:39.997Z,99.90
2023-04-14T07:19:22.268Z,99.90
2023-04-14T07:22:04.990Z,99.90
2023-04-14T07:24:47.342Z,99.90
2023-04-14T07:27:31.907Z,99.90
2023-04-14T07:30:14.536Z,99.90
2023-04-14T07:32:57.409Z,99.90
2023-04-14T07:35:48.058Z,99.90
2023-04-14T07:38:37.329Z,99.90
2023-04-14T07:41:19.715Z,99.90
2023-04-14T07:44:05.454Z,99.90
2023-04-14T07:46:47.743Z,99.90
2023-04-14T07:49:31.616Z,98.90
2023-04-14T07:52:13.944Z,99.90
2023-04-14T07:54:56.596Z,93.00
2023-04-14T07:57:40.484Z,58.90
2023-04-14T08:00:23.212Z,19.60
2023-04-14T08:03:05.838Z,16.70
2023-04-14T08:05:48.571Z,1.00
2023-04-14T08:08:31.050Z,1.00
2023-04-14T08:11:13.665Z,1.00
2023-04-14T08:13:56.026Z,1.00
2023-04-14T08:16:38.819Z,1.00
2023-04-14T08:19:21.252Z,1.00
2023-04-14T08:22:03.899Z,1.00
2023-04-14T08:24:46.577Z,1.00
2023-04-14T08:27:29.267Z,1.00
2023-04-14T08:30:11.967Z,1.00
2023-04-14T08:32:54.592Z,1.00
2023-04-14T08:35:42.819Z,1.00
2023-04-14T08:38:26.310Z,1.00
2023-04-14T08:41:09.874Z,1.00
2023-04-14T08:43:52.472Z,1.00
2023-04-14T08:46:36.425Z,1.00
2023-04-14T08:49:45.081Z,1.00
2023-04-14T08:52:29.158Z,1.00
2023-04-14T08:55:13.019Z,1.00
2023-04-14T08:57:56.131Z,1.00
2023-04-14T09:00:40.345Z,1.00
2023-04-14T09:03:25.355Z,1.00
2023-04-14T09:06:09.795Z,1.00
2023-04-14T09:08:55.080Z,1.00
2023-04-14T09:11:38.027Z,1.00
2023-04-14T09:14:21.828Z,1.00
2023-04-14T09:17:04.481Z,1.00
2023-04-14T09:20:37.371Z,1.00
2023-04-14T09:22:50.950Z,1.00
2023-04-14T09:25:33.342Z,1.00
2023-04-14T09:28:16.037Z,99.90
2023-04-14T09:30:58.396Z,99.90
2023-04-14T09:33:45.411Z,99.90
2023-04-14T09:36:29.180Z,99.90
2023-04-14T09:39:18.143Z,99.90
2023-04-14T09:42:01.801Z,99.90
2023-04-14T09:44:58.138Z,99.90
2023-04-14T09:47:40.500Z,99.90
2023-04-14T09:50:23.267Z,99.90
2023-04-14T09:53:08.252Z,99.90
2023-04-14T09:55:52.267Z,99.90
2023-04-14T09:58:36.679Z,99.90
2023-04-14T10:01:21.340Z,99.90
2023-04-14T10:04:03.929Z,99.90
2023-04-14T10:06:48.754Z,99.90
2023-04-14T10:09:37.765Z,99.90
2023-04-14T10:12:21.727Z,99.90
2023-04-14T10:15:05.443Z,99.90
2023-04-14T10:17:48.169Z,99.90
2023-04-14T10:20:31.231Z,99.90
2023-04-14T10:23:14.039Z,99.90
2023-04-14T10:25:56.797Z,99.90
2023-04-14T10:28:52.391Z,99.90
2023-04-14T10:31:48.668Z,99.90
2023-04-14T10:34:33.218Z,99.90
2023-04-14T10:37:16.597Z,99.90
2023-04-14T10:40:02.144Z,99.90
2023-04-14T10:42:57.408Z,99.90
2023-04-14T10:45:56.808Z,99.90
2023-04-14T10:48:40.551Z,99.90
2023-04-14T10:51:35.940Z,99.90
2023-04-14T10:54:21.511Z,99.90
2023-04-14T10:57:14.787Z,99.90
2023-04-14T10:59:59.746Z,99.90
2023-04-14T11:02:58.852Z,99.90
2023-04-14T11:05:48.463Z,99.90
2023-04-14T11:08:37.081Z,99.90
2023-04-14T11:11:19.642Z,99.90
2023-04-14T11:14:11.787Z,99.90
2023-04-14T11:17:05.381Z,99.90
2023-04-14T11:19:48.312Z,99.90
2023-04-14T11:22:41.737Z,99.90
2023-04-14T11:25:25.053Z,99.90
2023-04-14T11:28:08.151Z,99.90
2023-04-14T11:30:50.654Z,99.90
2023-04-14T11:33:35.933Z,99.90
2023-04-14T11:36:18.530Z,99.90
2023-04-14T11:39:01.758Z,99.90
2023-04-14T11:41:48.269Z,99.90
2023-04-14T11:44:31.961Z,99.90
2023-04-14T11:47:39.919Z,99.90
2023-04-14T11:50:23.266Z,99.90
2023-04-14T11:53:10.254Z,99.90
2023-04-14T11:55:53.414Z,99.90
2023-04-14T11:58:36.369Z,99.90
2023-04-14T12:01:24.207Z,99.90
2023-04-14T12:04:07.959Z,99.90
2023-04-14T12:06:50.454Z,99.90
2023-04-14T12:09:33.046Z,99.90
2023-04-14T12:12:17.381Z,99.90
2023-04-14T12:15:00.615Z,99.90
2023-04-14T12:17:43.199Z,99.90
2023-04-14T12:20:27.307Z,99.90
2023-04-14T12:23:09.537Z,99.90
2023-04-14T12:25:53.038Z,99.90
2023-04-14T12:28:37.198Z,99.90
2023-04-14T12:31:28.736Z,99.90
2023-04-14T12:34:14.932Z,99.90
2023-04-14T12:36:57.583Z,99.90
2023-04-14T12:40:00.518Z,99.90
2023-04-14T12:42:44.223Z,99.90
2023-04-14T12:45:28.137Z,99.90
2023-04-14T12:48:12.800Z,99.90
2023-04-14T12:51:12.601Z,99.90
2023-04-14T12:54:07.787Z,99.90
2023-04-14T12:56:50.291Z,99.90
2023-04-14T12:59:33.065Z,99.90
2023-04-14T13:02:15.869Z,99.90
2023-04-14T13:04:59.128Z,99.90
2023-04-14T13:07:42.695Z,99.90
2023-04-14T13:10:28.644Z,99.90
2023-04-14T13:13:11.035Z,99.90
2023-04-14T13:16:13.884Z,99.90
2023-04-14T13:18:56.132Z,99.90
2023-04-14T13:21:38.632Z,99.90
2023-04-14T13:24:21.064Z,99.90
2023-04-14T13:27:03.779Z,99.90
2023-04-14T13:29:46.313Z,99.90
2023-04-14T13:32:28.935Z,99.90
2023-04-14T13:35:11.285Z,99.90
2023-04-14T13:37:54.022Z,99.90
2023-04-14T13:41:01.892Z,99.90
2023-04-14T13:43:44.346Z,99.90
2023-04-14T13:46:26.696Z,99.90
2023-04-14T13:49:09.287Z,99.90
2023-04-14T13:51:51.850Z,99.90
2023-04-14T13:54:35.701Z,99.90
2023-04-14T13:57:18.489Z,99.90
2023-04-14T14:00:01.442Z,99.90
2023-04-14T14:02:43.986Z,99.90
2023-04-14T14:05:27.312Z,99.90
2023-04-14T14:08:13.743Z,99.90
2023-04-14T14:10:56.528Z,99.90
2023-04-14T14:13:39.723Z,99.90
2023-04-14T14:16:35.940Z,99.90
2023-04-14T14:19:19.266Z,99.90
2023-04-14T14:22:01.983Z,99.90
2023-04-14T14:24:44.466Z,99.90
2023-04-14T14:27:27.021Z,99.90
2023-04-14T14:30:09.717Z,99.90
2023-04-14T14:32:52.328Z,99.90
2023-04-14T14:35:35.203Z,99.90
2023-04-14T14:38:17.876Z,99.90
2023-04-14T14:41:00.269Z,99.90
2023-04-14T14:43:43.657Z,99.90
2023-04-14T14:46:26.264Z,99.90
2023-04-14T14:49:10.539Z,99.90
2023-04-14T14:51:52.755Z,99.90
2023-04-14T14:54:36.667Z,99.90
2023-04-14T14:57:21.210Z,99.90
2023-04-14T15:00:05.727Z,99.90
2023-04-14T15:02:48.312Z,99.90
2023-04-14T15:05:31.763Z,99.90
2023-04-14T15:08:14.629Z,99.90
2023-04-14T15:10:57.165Z,99.90
2023-04-14T15:13:39.483Z,99.90
2023-04-14T15:16:22.370Z,99.90
2023-04-14T15:19:05.286Z,99.90
2023-04-14T15:21:47.844Z,99.90
2023-04-14T15:24:30.066Z,99.90
2023-04-14T15:27:12.526Z,99.90
2023-04-14T15:29:55.007Z,99.90
2023-04-14T15:32:37.648Z,99.90
2023-04-14T15:35:20.713Z,99.90
2023-04-14T15:38:04.126Z,99.90
2023-04-14T15:40:46.757Z,99.90
2023-04-14T15:43:29.403Z,99.90
2023-04-14T15:46:13.226Z,99.90
2023-04-14T15:48:57.748Z,99.90
2023-04-14T15:51:40.430Z,99.90
2023-04-14T15:54:23.375Z,99.90
2023-04-14T15:57:05.735Z,99.90
2023-04-14T15:59:48.284Z,99.90
2023-04-14T16:02:35.104Z,99.90
2023-04-14T16:05:17.875Z,99.90
2023-04-14T16:08:02.857Z,99.90
2023-04-14T16:10:45.485Z,99.90
2023-04-14T16:13:27.807Z,99.90
2023-04-14T16:16:11.882Z,99.90
2023-04-14T16:18:56.532Z,99.90
2023-04-14T16:21:39.073Z,99.90
2023-04-14T16:24:21.471Z,99.90
2023-04-14T16:27:04.011Z,99.90
2023-04-14T16:29:46.938Z,99.90
2023-04-14T16:32:30.652Z,99.90
2023-04-14T16:35:12.932Z,99.90
2023-04-14T16:37:55.536Z,99.90
2023-04-14T16:40:38.249Z,99.90
2023-04-14T16:43:21.558Z,99.90
2023-04-14T16:46:05.303Z,99.90
2023-04-14T16:48:48.204Z,99.90
2023-04-14T16:51:30.953Z,99.90
2023-04-14T16:54:16.498Z,99.90
2023-04-14T16:56:59.409Z,99.90
2023-04-14T16:59:42.247Z,99.90
2023-04-14T17:02:24.700Z,99.90
2023-04-14T17:05:10.256Z,99.90
2023-04-14T17:07:53.024Z,99.90
2023-04-14T17:10:36.759Z,99.90
2023-04-14T17:13:19.328Z,99.90
2023-04-14T17:16:08.826Z,99.90
2023-04-14T17:18:52.070Z,99.90
2023-04-14T17:21:34.924Z,99.90
2023-04-14T17:24:17.838Z,99.90
2023-04-14T17:27:00.751Z,99.90
2023-04-14T17:29:43.771Z,99.90
2023-04-14T17:32:27.821Z,99.90
2023-04-14T17:35:10.866Z,99.90
2023-04-14T17:37:53.704Z,99.90
2023-04-14T17:40:36.388Z,99.90
2023-04-14T17:43:19.042Z,99.90
2023-04-14T17:46:01.587Z,99.90
2023-04-14T17:48:45.064Z,99.90
2023-04-14T17:51:29.208Z,99.90
2023-04-14T17:54:11.989Z,99.90
2023-04-14T17:56:54.408Z,99.90
2023-04-14T17:59:37.799Z,1.00
2023-04-14T18:02:20.196Z,1.00
2023-04-14T18:05:03.726Z,1.00
2023-04-14T18:07:47.049Z,1.00
2023-04-14T18:10:29.778Z,1.00
2023-04-14T18:13:12.803Z,1.00
2023-04-14T18:15:55.820Z,1.00
2023-04-14T18:18:38.529Z,1.00
2023-04-14T18:21:21.824Z,1.00
2023-04-14T18:26:51.592Z,1.00
2023-04-14T18:29:35.536Z,1.00
2023-04-14T18:32:18.209Z,1.00
2023-04-14T18:35:00.951Z,1.00
2023-04-14T18:37:44.936Z,1.00
2023-04-14T18:40:27.830Z,15.40
2023-04-14T18:43:10.825Z,34.70
2023-04-14T18:45:53.022Z,72.10
2023-04-14T18:48:35.621Z,92.20
2023-04-14T18:51:18.093Z,99.90
2023-04-14T18:54:01.076Z,99.90
2023-04-14T18:56:43.781Z,99.90
2023-04-14T18:59:27.558Z,99.90
2023-04-14T19:02:13.481Z,99.90
2023-04-14T19:04:56.616Z,99.90
2023-04-14T19:07:39.263Z,99.90
2023-04-14T19:10:22.171Z,99.90
2023-04-14T19:13:04.715Z,99.90
2023-04-14T19:15:47.208Z,99.90
2023-04-14T19:18:29.605Z,99.90
2023-04-14T19:21:12.488Z,99.90
2023-04-14T19:23:57.224Z,1.00
2023-04-14T19:26:40.931Z,1.00
2023-04-14T19:29:23.643Z,1.00
2023-04-14T19:32:07.117Z,1.00
2023-04-14T19:34:49.662Z,1.00
2023-04-14T19:37:33.842Z,1.00
2023-04-14T19:40:16.607Z,1.00
2023-04-14T19:42:59.349Z,1.00
2023-04-14T19:45:53.118Z,1.00
2023-04-14T19:48:36.136Z,1.00
2023-04-14T19:51:18.464Z,1.00
2023-04-14T19:54:05.505Z,16.50
2023-04-14T19:56:47.785Z,29.90
2023-04-14T19:59:31.573Z,48.40
2023-04-14T20:02:14.231Z,82.40
2023-04-14T20:04:58.059Z,99.60
2023-04-14T20:07:40.835Z,99.90
2023-04-14T20:10:23.736Z,99.90
2023-04-14T20:13:07.597Z,99.90
2023-04-14T20:15:56.901Z,99.90
2023-04-14T20:18:40.550Z,99.90
2023-04-14T20:21:23.302Z,99.90
2023-04-14T20:24:06.012Z,99.90
2023-04-14T20:26:48.714Z,99.90
2023-04-14T20:29:31.132Z,99.90
2023-04-14T20:32:13.949Z,99.90
2023-04-14T20:34:56.444Z,99.90
2023-04-14T20:37:39.607Z,99.90
2023-04-14T20:40:22.350Z,99.90
2023-04-14T20:43:06.019Z,99.90
2023-04-14T20:45:50.081Z,1.00
2023-04-14T20:48:32.934Z,1.00
2023-04-14T20:51:15.620Z,1.00
2023-04-14T20:53:58.279Z,1.00
2023-04-14T20:56:40.919Z,1.00
2023-04-14T20:59:24.351Z,5.30
2023-04-14T21:02:07.236Z,71.40
2023-04-14T21:04:50.031Z,99.90
2023-04-14T21:07:37.106Z,99.90
2023-04-14T21:10:21.681Z,99.90
2023-04-14T21:15:31.331Z,99.90
2023-04-14T21:16:09.066Z,99.90
2023-04-14T21:18:52.415Z,99.90
2023-04-14T21:21:35.063Z,99.90
2023-04-14T21:24:18.384Z,99.90
2023-04-14T21:27:02.727Z,99.90
2023-04-14T21:29:45.875Z,99.90
2023-04-14T21:32:28.743Z,99.90
2023-04-14T21:35:12.069Z,99.90
2023-04-14T21:37:54.549Z,99.90
2023-04-14T21:40:39.964Z,99.90
2023-04-14T21:43:22.639Z,99.90
2023-04-14T21:46:05.669Z,99.90
2023-04-14T21:48:48.225Z,99.90
2023-04-14T21:51:30.551Z,99.90
2023-04-14T21:54:13.632Z,99.90
2023-04-14T21:56:57.002Z,99.90
2023-04-14T21:59:39.462Z,99.90
2023-04-14T22:02:21.753Z,99.90
2023-04-14T22:05:04.813Z,99.90
2023-04-14T22:07:47.040Z,99.90
2023-04-14T22:10:32.434Z,99.90
2023-04-14T22:13:15.633Z,99.90
2023-04-14T22:15:58.195Z,99.90
2023-04-14T22:18:40.803Z,99.90
2023-04-14T22:21:23.353Z,99.90
2023-04-14T22:24:05.870Z,99.90
2023-04-14T22:26:48.294Z,99.90
2023-04-14T22:29:30.537Z,99.90
2023-04-14T22:32:12.940Z,99.90
2023-04-14T22:34:55.193Z,99.90
2023-04-14T22:37:37.591Z,99.90
2023-04-14T22:40:20.348Z,1.00
2023-04-14T22:43:08.574Z,99.90
2023-04-14T22:45:51.122Z,99.90
2023-04-14T22:48:35.260Z,1.00
2023-04-14T22:51:19.419Z,1.00
2023-04-14T22:54:05.242Z,1.00
2023-04-14T22:56:48.259Z,1.00
2023-04-14T22:59:30.781Z,99.90
2023-04-14T23:02:13.188Z,99.90
2023-04-14T23:04:55.973Z,1.00
2023-04-14T23:07:38.500Z,1.00
2023-04-14T23:10:21.120Z,1.00
2023-04-14T23:13:03.658Z,1.00
2023-04-14T23:15:47.549Z,1.00
2023-04-14T23:18:35.445Z,1.00
2023-04-14T23:21:22.490Z,1.00
2023-04-14T23:24:08.777Z,1.00
2023-04-14T23:26:52.422Z,1.00
2023-04-14T23:29:37.681Z,99.90
2023-04-14T23:32:22.002Z,99.90
2023-04-14T23:35:06.386Z,1.00
2023-04-14T23:37:49.840Z,99.90
2023-04-14T23:40:33.435Z,71.50
2023-04-14T23:43:16.699Z,1.00
2023-04-14T23:45:59.004Z,99.90
2023-04-14T23:48:42.171Z,99.90
2023-04-14T23:51:25.210Z,1.00
2023-04-14T23:54:09.502Z,1.00
2023-04-14T23:56:52.678Z,34.30
2023-04-14T23:59:35.232Z,19.40
